Hlavní strana
METAR-TAF:

METAR-TAF

Letiště :

Alžír, Alžírsko

Letiště Houariho Boumédièna

zeměpisná šířka: 36-43N, zeměpisná délka: 003-15E, výška: 25 m

Aktuální stav počasí

Zpráva byla vytvořena před 50 minutami, v 12:30 UTC
Severní vítr 8 kt
Teplota 28°C
Vlhkost vzduchu 58%
Tlak 1014 hPa
Viditelnost: 8000 m

METAR: DAAG 231230Z 01008KT 8000 NSC 28/19 Q1014

Čas: 14:20 (13:20 UTC)

Předpověď počasí

Zpráva byla vytvořena před 2 hodinami a 20 minutami, v 11:00 UTC
Předpověď platná od 23 v 12 UTC do 24 v 12 UTC
Severní vítr 10 kt
Viditelnost: 8000 m
Pravděpodobnost 30% :
Dočasný
od 23 v 12 UTC do 23 v 18 UTC
Východoseverovýchodní vítr 15 kt s nárazy do 25 kt
Změna
od 23 v 18 UTC do 23 v 21 UTC
vítr z různých směrů 2 kt
Dočasný
od 24 v 08 UTC do 24 v 12 UTC
Skoro jasno ve výšce 2300 ft, Vertikální cumulus.

TAF: DAAG 231100Z 2312/2412 36010KT 8000 NSC PROB30 TEMPO 2312/2318 07015G25KT BECMG 2318/2321 VRB02KT TEMPO 2408/2412 FEW023TCU

Stav a předpovědi počasí z více než 4 000 letišť (zprávy METAR a TAF).

Červené a žluté tečky na mapě představují dostupné meteorologické stanice.

Když kurzor umístíte na tečku, zobrazí se název stanice.

Pak kliknutím zobrazíte stav a předpověď počasí.

Chcete-li změnit mapu, kliknutím na zelené tlačítko se znaménkem +mapu přiblížíte, kliknutím na zelené tlačítko se znaménkem – mapu oddálíte a kliknutím na zelené šipky přejdete na sousední mapy.


METAR-TAF: